createdAt,value
2022-10-01T00:00:26.711Z,100285.34
2022-10-01T00:00:58.378Z,100278.84
2022-10-01T00:01:29.927Z,100286.84
2022-10-01T00:02:01.600Z,100287.28
2022-10-01T00:02:37.095Z,100284.63
2022-10-01T00:03:09.555Z,100276.66
2022-10-01T00:03:41.988Z,100273.97
2022-10-01T00:04:13.529Z,100277.22
2022-10-01T00:04:44.990Z,100281.28
2022-10-01T00:05:16.539Z,100281.63
2022-10-01T00:05:59.025Z,100281.50
2022-10-01T00:06:30.543Z,100280.00
2022-10-01T00:07:04.675Z,100286.59
2022-10-01T00:07:44.336Z,100280.47
2022-10-01T00:08:16.600Z,100285.22
2022-10-01T00:08:49.905Z,100273.41
2022-10-01T00:09:21.404Z,100279.16
2022-10-01T00:09:52.872Z,100281.59
2022-10-01T00:10:24.425Z,100277.09
2022-10-01T00:10:56.258Z,100280.56
2022-10-01T00:11:27.760Z,100274.22
2022-10-01T00:11:59.832Z,100273.41
2022-10-01T00:12:31.370Z,100277.09
2022-10-01T00:13:03.533Z,100276.50
2022-10-01T00:13:36.097Z,100273.81
2022-10-01T00:14:08.383Z,100278.84
2022-10-01T00:14:39.872Z,100276.66
2022-10-01T00:15:13.549Z,100275.03
2022-10-01T00:15:46.623Z,100270.94
2022-10-01T00:16:20.760Z,100266.31
2022-10-01T00:16:53.277Z,100268.97
2022-10-01T00:17:25.004Z,100263.63
2022-10-01T00:17:56.550Z,100265.84
2022-10-01T00:18:29.604Z,100263.63
2022-10-01T00:19:01.107Z,100254.03
2022-10-01T00:19:32.578Z,100260.59
2022-10-01T00:20:14.006Z,100260.38
2022-10-01T00:20:45.764Z,100252.84
2022-10-01T00:21:20.209Z,100258.75
2022-10-01T00:21:51.973Z,100249.59
2022-10-01T00:22:23.474Z,100254.91
2022-10-01T00:22:54.960Z,100254.91
2022-10-01T00:23:26.454Z,100246.34
2022-10-01T00:24:04.693Z,100249.00
2022-10-01T00:24:37.720Z,100248.56
2022-10-01T00:25:09.304Z,100244.28
2022-10-01T00:25:41.319Z,100236.75
2022-10-01T00:26:25.546Z,100248.19
2022-10-01T00:26:57.845Z,100244.72
2022-10-01T00:27:29.896Z,100239.06
2022-10-01T00:28:01.698Z,100230.50
2022-10-01T00:28:33.208Z,100232.13
2022-10-01T00:29:09.886Z,100231.06
2022-10-01T00:29:43.101Z,100224.94
2022-10-01T00:30:14.634Z,100227.59
2022-10-01T00:30:47.507Z,100218.00
2022-10-01T00:31:19.137Z,100220.44
2022-10-01T00:31:50.778Z,100220.44
2022-10-01T00:32:23.033Z,100231.31
2022-10-01T00:32:55.434Z,100216.97
2022-10-01T00:33:26.954Z,100224.25
2022-10-01T00:33:59.635Z,100215.69
2022-10-01T00:34:31.314Z,100210.38
2022-10-01T00:35:03.412Z,100200.19
2022-10-01T00:35:34.931Z,100207.94
2022-10-01T00:36:08.709Z,100203.06
2022-10-01T00:36:41.050Z,100196.47
2022-10-01T00:37:12.820Z,100198.34
2022-10-01T00:37:44.305Z,100199.38
2022-10-01T00:38:15.807Z,100203.06
2022-10-01T00:38:48.304Z,100210.81
2022-10-01T00:39:19.840Z,100199.38
2022-10-01T00:39:51.340Z,100208.75
2022-10-01T00:40:23.815Z,100191.97
2022-10-01T00:40:55.636Z,100197.06
2022-10-01T00:41:29.210Z,100200.06
2022-10-01T00:42:00.800Z,100198.91
2022-10-01T00:42:32.510Z,100190.94
2022-10-01T00:43:20.849Z,100186.19
2022-10-01T00:43:57.496Z,100192.56
2022-10-01T00:44:38.368Z,100194.06
2022-10-01T00:45:15.483Z,100190.34
2022-10-01T00:45:47.131Z,100194.06
2022-10-01T00:46:36.874Z,100196.94
2022-10-01T00:47:31.898Z,100182.47
2022-10-01T00:48:03.512Z,100192.91
2022-10-01T00:48:40.098Z,100186.31
2022-10-01T00:49:16.601Z,100181.44
2022-10-01T00:49:49.749Z,100189.19
2022-10-01T00:50:28.287Z,100184.31
2022-10-01T00:51:00.134Z,100188.97
2022-10-01T00:51:44.893Z,100188.38
2022-10-01T00:52:21.085Z,100178.56
2022-10-01T00:52:55.200Z,100181.22
2022-10-01T00:53:27.382Z,100188.16
2022-10-01T00:54:05.796Z,100187.91
2022-10-01T00:54:44.473Z,100178.09
2022-10-01T00:55:20.805Z,100172.41
2022-10-01T00:55:55.258Z,100178.09
2022-10-01T00:56:26.873Z,100171.16
2022-10-01T00:56:59.644Z,100168.94
2022-10-01T00:57:31.624Z,100167.91
2022-10-01T00:58:07.941Z,100168.13
2022-10-01T00:58:39.646Z,100167.31
2022-10-01T00:59:12.276Z,100163.41
2022-10-01T00:59:45.275Z,100158.53
2022-10-01T01:00:16.852Z,100158.88
2022-10-01T01:00:50.163Z,100159.47
2022-10-01T01:01:24.323Z,100150.31
2022-10-01T01:01:56.292Z,100156.47
2022-10-01T01:02:28.368Z,100154.38
2022-10-01T01:02:59.992Z,100155.66
2022-10-01T01:03:31.539Z,100150.31
2022-10-01T01:04:03.169Z,100147.44
2022-10-01T01:04:34.650Z,100154.59
2022-10-01T01:05:08.867Z,100151.38
2022-10-01T01:05:40.523Z,100153.22
2022-10-01T01:06:12.020Z,100150.44
2022-10-01T01:06:58.413Z,100151.47
2022-10-01T01:07:31.699Z,100143.72
2022-10-01T01:08:03.990Z,100150.91
2022-10-01T01:08:35.492Z,100155.88
2022-10-01T01:09:06.993Z,100151.38
2022-10-01T01:09:44.640Z,100152.41
2022-10-01T01:10:26.633Z,100149.75
2022-10-01T01:11:06.920Z,100149.50
2022-10-01T01:11:45.862Z,100145.22
2022-10-01T01:12:24.925Z,100146.50
2022-10-01T01:13:37.684Z,100153.22
2022-10-01T01:14:35.919Z,100139.91
2022-10-01T01:15:25.784Z,100139.91
2022-10-01T01:16:10.417Z,100147.09
2022-10-01T01:16:49.314Z,100136.44
2022-10-01T01:17:26.555Z,100148.81
2022-10-01T01:18:18.176Z,100146.16
2022-10-01T01:19:00.806Z,100132.75
2022-10-01T01:19:50.561Z,100134.81
2022-10-01T01:20:46.590Z,100137.25
2022-10-01T01:21:26.907Z,100137.59
2022-10-01T01:22:03.748Z,100134.38
2022-10-01T01:22:37.709Z,100120.47
2022-10-01T01:23:15.256Z,100123.72
2022-10-01T01:23:55.396Z,100120.94
2022-10-01T01:24:52.263Z,100111.13
2022-10-01T01:25:33.660Z,100110.66
2022-10-01T01:26:21.356Z,100112.97
2022-10-01T01:26:54.516Z,100105.22
2022-10-01T01:27:37.821Z,100111.56
2022-10-01T01:28:16.839Z,100109.16
2022-10-01T01:28:52.133Z,100107.50
2022-10-01T01:29:27.702Z,100106.50
2022-10-01T01:30:06.908Z,100100.56
2022-10-01T01:30:41.432Z,100097.47
2022-10-01T01:31:20.213Z,100096.84
2022-10-01T01:31:53.634Z,100086.81
2022-10-01T01:32:29.521Z,100084.75
2022-10-01T01:33:05.113Z,100089.50
2022-10-01T01:33:38.969Z,100078.63
2022-10-01T01:34:14.221Z,100083.94
2022-10-01T01:34:48.638Z,100081.75
2022-10-01T01:35:25.917Z,100083.56
2022-10-01T01:36:06.960Z,100071.69
2022-10-01T01:36:39.798Z,100063.31
2022-10-01T01:37:14.296Z,100065.78
2022-10-01T01:37:51.067Z,100060.09
2022-10-01T01:38:29.086Z,100056.75
2022-10-01T01:39:04.069Z,100052.25
2022-10-01T01:39:36.128Z,100048.41
2022-10-01T01:40:12.325Z,100049.44
2022-10-01T01:40:46.484Z,100042.50
2022-10-01T01:41:20.203Z,100038.22
2022-10-01T01:41:55.560Z,100035.56
2022-10-01T01:42:31.358Z,100035.91
2022-10-01T01:43:11.290Z,100024.47
2022-10-01T01:43:45.819Z,100027.34
2022-10-01T01:44:22.214Z,100020.41
2022-10-01T01:44:58.109Z,100021.69
2022-10-01T01:45:30.638Z,100020.41
2022-10-01T01:46:05.605Z,100024.34
2022-10-01T01:46:40.248Z,100018.22
2022-10-01T01:47:13.082Z,100018.00
2022-10-01T01:47:46.013Z,100014.28
2022-10-01T01:48:18.535Z,100014.19
2022-10-01T01:48:51.221Z,100014.88
2022-10-01T01:49:23.089Z,100017.06
2022-10-01T01:49:54.643Z,100018.34
2022-10-01T01:50:28.967Z,100005.28
2022-10-01T01:51:23.830Z,100004.47
2022-10-01T01:51:59.966Z,100005.72
2022-10-01T01:52:32.839Z,100005.72
2022-10-01T01:53:04.387Z,100000.41
2022-10-01T01:53:36.043Z,100000.41
2022-10-01T01:54:08.752Z,99991.41
2022-10-01T01:54:41.009Z,100006.53
2022-10-01T01:55:12.600Z,99997.19
2022-10-01T01:55:45.955Z,100005.72
2022-10-01T01:56:18.142Z,100003.66
2022-10-01T01:56:50.275Z,100003.66
2022-10-01T01:57:22.521Z,100003.75
2022-10-01T01:57:54.495Z,100012.22
2022-10-01T01:58:27.824Z,100000.75
2022-10-01T01:59:01.044Z,100006.06
2022-10-01T01:59:33.938Z,100009.78
2022-10-01T02:00:05.980Z,100020.75
2022-10-01T02:00:39.204Z,100010.13
2022-10-01T02:01:32.857Z,99999.94
2022-10-01T02:02:08.027Z,100007.34
2022-10-01T02:02:41.550Z,100005.28
2022-10-01T02:03:13.286Z,100008.50
2022-10-01T02:03:44.777Z,100015.44
2022-10-01T02:04:30.715Z,100009.53
2022-10-01T02:05:13.721Z,100014.88
2022-10-01T02:06:12.900Z,99997.53
2022-10-01T02:07:09.127Z,99997.19
2022-10-01T02:08:07.780Z,99993.13
2022-10-01T02:08:49.693Z,99988.84
2022-10-01T02:09:21.156Z,99987.22
2022-10-01T02:10:07.701Z,99982.72
2022-10-01T02:11:16.492Z,99982.84
2022-10-01T02:12:20.264Z,99978.19
2022-10-01T02:13:05.661Z,99975.34
2022-10-01T02:13:54.780Z,99965.50
2022-10-01T02:14:35.697Z,99961.00
2022-10-01T02:15:11.568Z,99963.84
2022-10-01T02:16:07.823Z,99962.25
2022-10-01T02:17:01.571Z,99971.63
2022-10-01T02:17:57.866Z,99964.34
2022-10-01T02:18:41.913Z,99969.78
2022-10-01T02:19:19.462Z,99970.38
2022-10-01T02:19:56.317Z,99957.53
2022-10-01T02:20:50.711Z,99964.69
2022-10-01T02:21:44.335Z,99968.75
2022-10-01T02:22:41.562Z,99971.63
2022-10-01T02:23:16.068Z,99965.84
2022-10-01T02:23:52.749Z,99965.94
2022-10-01T02:24:50.288Z,99958.53
2022-10-01T02:25:27.013Z,99947.09
2022-10-01T02:26:04.432Z,99945.25
2022-10-01T02:26:37.493Z,99943.75
2022-10-01T02:27:23.302Z,99945.84
2022-10-01T02:28:01.580Z,99935.66
2022-10-01T02:28:33.753Z,99936.69
2022-10-01T02:29:08.644Z,99933.78
2022-10-01T02:29:41.059Z,99939.72
2022-10-01T02:30:13.282Z,99932.78
2022-10-01T02:30:45.085Z,99946.09
2022-10-01T02:31:18.115Z,99946.53
2022-10-01T02:31:53.400Z,99939.94
2022-10-01T02:32:25.700Z,99948.03
2022-10-01T02:32:59.366Z,99949.56
2022-10-01T02:33:33.723Z,99946.28
2022-10-01T02:34:12.485Z,99942.00
2022-10-01T02:34:46.272Z,99946.28
2022-10-01T02:35:19.348Z,99937.72
2022-10-01T02:35:52.125Z,99940.97
2022-10-01T02:36:24.696Z,99942.16
2022-10-01T02:36:58.111Z,99938.69
2022-10-01T02:37:29.811Z,99937.88
2022-10-01T02:38:04.224Z,99942.59
2022-10-01T02:38:37.959Z,99943.44
2022-10-01T02:39:10.357Z,99944.66
2022-10-01T02:39:42.980Z,99952.41
2022-10-01T02:40:17.603Z,99948.28
2022-10-01T02:40:52.068Z,99936.81
2022-10-01T02:41:27.433Z,99945.03
2022-10-01T02:41:59.623Z,99943.75
2022-10-01T02:42:31.843Z,99934.41
2022-10-01T02:43:14.153Z,99949.09
2022-10-01T02:43:54.521Z,99937.97
2022-10-01T02:44:37.850Z,99945.38
2022-10-01T02:45:10.040Z,99943.75
2022-10-01T02:45:43.878Z,99943.19
2022-10-01T02:46:27.784Z,99947.00
2022-10-01T02:47:08.151Z,99948.03
2022-10-01T02:47:41.423Z,99947.81
2022-10-01T02:48:17.725Z,99948.13
2022-10-01T02:48:49.852Z,99953.94
2022-10-01T02:49:21.581Z,99945.38
2022-10-01T02:49:53.268Z,99948.03
2022-10-01T02:50:27.870Z,99943.75
2022-10-01T02:51:26.103Z,99946.88
2022-10-01T02:52:15.653Z,99953.47
2022-10-01T02:52:57.317Z,99947.56
2022-10-01T02:53:36.460Z,99959.34
2022-10-01T02:54:14.002Z,99944.91
2022-10-01T02:54:51.167Z,99946.75
2022-10-01T02:55:31.088Z,99949.41
2022-10-01T02:56:03.619Z,99961.09
2022-10-01T02:56:58.348Z,99963.75
2022-10-01T02:57:29.950Z,99947.34
2022-10-01T02:58:01.470Z,99946.06
2022-10-01T02:58:33.123Z,99935.41
2022-10-01T02:59:07.601Z,99934.25
2022-10-01T02:59:39.068Z,99931.38
2022-10-01T03:00:13.401Z,99929.75
2022-10-01T03:00:45.439Z,99929.28
2022-10-01T03:01:17.077Z,99930.56
2022-10-01T03:01:48.729Z,99930.56
2022-10-01T03:02:20.904Z,99921.53
2022-10-01T03:02:53.043Z,99935.06
2022-10-01T03:03:26.140Z,99930.56
2022-10-01T03:03:57.642Z,99926.06
2022-10-01T03:04:29.157Z,99927.66
2022-10-01T03:05:02.012Z,99918.97
2022-10-01T03:05:33.497Z,99932.75
2022-10-01T03:06:05.226Z,99922.81
2022-10-01T03:06:36.877Z,99928.94
2022-10-01T03:07:08.443Z,99926.53
2022-10-01T03:07:40.871Z,99934.25
2022-10-01T03:08:12.505Z,99933.78
2022-10-01T03:08:44.021Z,99917.50
2022-10-01T03:09:15.748Z,99925.81
2022-10-01T03:09:47.335Z,99915.75
2022-10-01T03:10:19.100Z,99925.81
2022-10-01T03:10:50.611Z,99926.84
2022-10-01T03:11:22.235Z,99915.41
2022-10-01T03:11:53.726Z,99915.75
2022-10-01T03:12:25.236Z,99913.41
2022-10-01T03:12:56.768Z,99920.13
2022-10-01T03:13:28.394Z,99907.06
2022-10-01T03:14:00.996Z,99924.31
2022-10-01T03:14:33.016Z,99916.88
2022-10-01T03:15:05.065Z,99910.44
2022-10-01T03:15:36.582Z,99907.19
2022-10-01T03:16:08.148Z,99899.78
2022-10-01T03:16:39.777Z,99908.81
2022-10-01T03:17:12.744Z,99908.81
2022-10-01T03:17:44.320Z,99899.22
2022-10-01T03:18:15.814Z,99911.47
2022-10-01T03:18:47.352Z,99903.00
2022-10-01T03:19:19.156Z,99904.50
2022-10-01T03:19:50.673Z,99900.94
2022-10-01T03:20:22.640Z,99903.00
2022-10-01T03:20:54.412Z,99903.00
2022-10-01T03:21:25.932Z,99897.34
2022-10-01T03:21:57.469Z,99903.50
2022-10-01T03:22:28.989Z,99896.31
2022-10-01T03:23:00.509Z,99905.00
2022-10-01T03:23:31.984Z,99893.31
2022-10-01T03:24:03.772Z,99897.59
2022-10-01T03:24:35.409Z,99899.78
2022-10-01T03:25:07.302Z,99904.06
2022-10-01T03:25:39.072Z,99898.97
2022-10-01T03:26:10.548Z,99895.50
2022-10-01T03:26:42.375Z,99894.00
2022-10-01T03:27:13.887Z,99898.50
2022-10-01T03:27:46.577Z,99900.81
2022-10-01T03:28:18.248Z,99908.91
2022-10-01T03:28:49.942Z,99907.28
2022-10-01T03:29:21.424Z,99899.31
2022-10-01T03:29:53.129Z,99894.00
2022-10-01T03:30:25.273Z,99899.31
2022-10-01T03:31:07.522Z,99899.88
2022-10-01T03:31:39.099Z,99896.88
2022-10-01T03:32:11.516Z,99896.06
2022-10-01T03:32:43.245Z,99892.38
2022-10-01T03:33:14.767Z,99894.31
2022-10-01T03:33:46.335Z,99901.25
2022-10-01T03:34:18.257Z,99886.09
2022-10-01T03:34:49.788Z,99896.19
2022-10-01T03:35:21.277Z,99902.06
2022-10-01T03:35:52.756Z,99890.94
2022-10-01T03:36:24.595Z,99893.84
2022-10-01T03:36:56.083Z,99894.91
2022-10-01T03:37:27.644Z,99890.13
2022-10-01T03:37:59.179Z,99897.88
2022-10-01T03:38:31.311Z,99884.50
2022-10-01T03:39:03.061Z,99887.16
2022-10-01T03:39:34.806Z,99879.97
2022-10-01T03:40:07.548Z,99885.63
2022-10-01T03:40:39.119Z,99881.34
2022-10-01T03:41:10.822Z,99880.06
2022-10-01T03:41:42.357Z,99883.78
2022-10-01T03:42:13.863Z,99881.91
2022-10-01T03:42:45.425Z,99890.47
2022-10-01T03:43:16.924Z,99890.38
2022-10-01T03:43:48.514Z,99885.63
2022-10-01T03:44:19.988Z,99885.63
2022-10-01T03:44:51.464Z,99890.94
2022-10-01T03:45:22.984Z,99891.75
2022-10-01T03:45:55.980Z,99881.81
2022-10-01T03:46:27.573Z,99887.72
2022-10-01T03:46:59.195Z,99882.41
2022-10-01T03:47:30.677Z,99879.25
2022-10-01T03:48:02.199Z,99888.84
2022-10-01T03:48:33.667Z,99888.28
2022-10-01T03:49:05.135Z,99887.47
2022-10-01T03:49:37.273Z,99889.66
2022-10-01T03:50:08.853Z,99886.78
2022-10-01T03:50:40.361Z,99880.66
2022-10-01T03:51:15.559Z,99887.00
2022-10-01T03:51:49.710Z,99878.56
2022-10-01T03:52:21.241Z,99886.31
2022-10-01T03:52:52.777Z,99886.78
2022-10-01T03:53:26.394Z,99887.59
2022-10-01T03:53:58.687Z,99879.38
2022-10-01T03:54:32.683Z,99884.13
2022-10-01T03:55:05.862Z,99888.41
2022-10-01T03:55:37.374Z,99884.94
2022-10-01T03:56:08.899Z,99894.53
2022-10-01T03:56:42.647Z,99889.22
2022-10-01T03:57:14.172Z,99885.75
2022-10-01T03:57:45.729Z,99889.09
2022-10-01T03:58:18.933Z,99893.13
2022-10-01T03:58:50.571Z,99882.97
2022-10-01T03:59:22.188Z,99881.13
2022-10-01T03:59:53.676Z,99881.91
2022-10-01T04:00:25.865Z,99881.91
2022-10-01T04:00:57.775Z,99886.31
2022-10-01T04:01:29.401Z,99884.72
2022-10-01T04:02:01.071Z,99886.31
2022-10-01T04:02:32.914Z,99881.00
2022-10-01T04:03:04.661Z,99882.63
2022-10-01T04:03:36.484Z,99891.06
2022-10-01T04:04:07.999Z,99881.81
2022-10-01T04:04:39.577Z,99880.56
2022-10-01T04:05:12.481Z,99881.00
2022-10-01T04:05:45.016Z,99896.84
2022-10-01T04:06:16.565Z,99891.19
2022-10-01T04:06:48.083Z,99888.97
2022-10-01T04:07:19.564Z,99887.50
2022-10-01T04:07:51.054Z,99891.19
2022-10-01T04:08:24.499Z,99883.88
2022-10-01T04:08:56.134Z,99887.00
2022-10-01T04:09:27.702Z,99880.56
2022-10-01T04:09:59.214Z,99879.38
2022-10-01T04:10:30.997Z,99876.47
2022-10-01T04:11:02.499Z,99881.00
2022-10-01T04:11:34.302Z,99883.41
2022-10-01T04:12:06.013Z,99876.47
2022-10-01T04:12:37.479Z,99887.81
2022-10-01T04:13:09.466Z,99882.16
2022-10-01T04:13:41.046Z,99890.72
2022-10-01T04:14:12.538Z,99881.13
2022-10-01T04:14:44.195Z,99887.00
2022-10-01T04:15:16.637Z,99880.88
2022-10-01T04:15:48.858Z,99889.19
2022-10-01T04:16:20.438Z,99882.75
2022-10-01T04:16:52.904Z,99881.69
2022-10-01T04:17:24.414Z,99885.63
2022-10-01T04:17:56.032Z,99880.56
2022-10-01T04:18:27.678Z,99889.91
2022-10-01T04:18:59.158Z,99876.38
2022-10-01T04:19:30.696Z,99881.69
2022-10-01T04:20:02.301Z,99881.69
2022-10-01T04:20:35.011Z,99880.06
2022-10-01T04:21:06.604Z,99878.47
2022-10-01T04:21:39.051Z,99875.09
2022-10-01T04:22:10.585Z,99880.16
2022-10-01T04:22:42.798Z,99874.28
2022-10-01T04:23:14.686Z,99878.78
2022-10-01T04:23:46.265Z,99884.44
2022-10-01T04:24:17.781Z,99880.16
2022-10-01T04:24:49.693Z,99876.47
2022-10-01T04:25:21.396Z,99879.59
2022-10-01T04:25:53.036Z,99884.13
2022-10-01T04:26:25.196Z,99874.50
2022-10-01T04:26:56.893Z,99880.16
2022-10-01T04:27:28.366Z,99884.44
2022-10-01T04:28:02.042Z,99875.41
2022-10-01T04:28:33.628Z,99879.13
2022-10-01T04:29:05.128Z,99875.88
2022-10-01T04:29:40.099Z,99880.16
2022-10-01T04:30:11.987Z,99881.22
2022-10-01T04:30:44.929Z,99873.78
2022-10-01T04:31:25.793Z,99882.81
2022-10-01T04:31:58.385Z,99877.59
2022-10-01T04:32:29.966Z,99878.88
2022-10-01T04:33:01.776Z,99873.78
2022-10-01T04:33:33.390Z,99887.66
2022-10-01T04:34:04.956Z,99879.69
2022-10-01T04:34:54.712Z,99874.69
2022-10-01T04:35:27.208Z,99877.34
2022-10-01T04:35:58.799Z,99887.66
2022-10-01T04:36:31.101Z,99874.94
2022-10-01T04:37:02.613Z,99879.22
2022-10-01T04:37:34.157Z,99877.59
2022-10-01T04:38:08.484Z,99880.25
2022-10-01T04:38:40.093Z,99880.81
2022-10-01T04:39:11.540Z,99874.94
2022-10-01T04:39:43.017Z,99882.69
2022-10-01T04:40:14.539Z,99882.19
2022-10-01T04:40:46.059Z,99878.16
2022-10-01T04:41:17.622Z,99880.50
2022-10-01T04:41:49.606Z,99880.72
2022-10-01T04:42:21.659Z,99885.09
2022-10-01T04:42:53.316Z,99877.03
2022-10-01T04:43:24.870Z,99878.16
2022-10-01T04:43:57.434Z,99880.25
2022-10-01T04:44:30.144Z,99885.09
2022-10-01T04:45:01.649Z,99883.47
2022-10-01T04:45:33.124Z,99889.94
2022-10-01T04:46:04.684Z,99883.00
2022-10-01T04:46:36.260Z,99878.97
2022-10-01T04:47:08.802Z,99877.13
2022-10-01T04:47:48.534Z,99877.69
2022-10-01T04:48:20.098Z,99886.25
2022-10-01T04:48:51.609Z,99880.94
2022-10-01T04:49:23.326Z,99880.34
2022-10-01T04:49:54.791Z,99884.63
2022-10-01T04:50:27.077Z,99884.06
2022-10-01T04:50:58.534Z,99881.38
2022-10-01T04:51:30.069Z,99886.47
2022-10-01T04:52:02.240Z,99883.38
2022-10-01T04:52:33.835Z,99891.09
2022-10-01T04:53:05.314Z,99887.63
2022-10-01T04:53:36.803Z,99886.13
2022-10-01T04:54:08.334Z,99889.00
2022-10-01T04:54:39.848Z,99896.44
2022-10-01T04:55:11.929Z,99893.06
2022-10-01T04:55:43.773Z,99891.19
2022-10-01T04:56:15.472Z,99893.84
2022-10-01T04:56:46.998Z,99899.50
2022-10-01T04:57:22.252Z,99894.66
2022-10-01T04:57:54.016Z,99886.44
2022-10-01T04:58:26.648Z,99885.06
2022-10-01T04:58:58.217Z,99898.06
2022-10-01T04:59:30.970Z,99896.44
2022-10-01T05:00:04.632Z,99894.34
2022-10-01T05:00:36.477Z,99888.06
2022-10-01T05:01:08.233Z,99895.00
2022-10-01T05:01:42.147Z,99891.53
2022-10-01T05:02:14.552Z,99886.44
2022-10-01T05:02:47.144Z,99895.97
2022-10-01T05:03:18.667Z,99882.66
2022-10-01T05:03:50.213Z,99893.13
2022-10-01T05:04:21.770Z,99897.91
2022-10-01T05:04:54.196Z,99906.13
2022-10-01T05:05:27.256Z,99898.13
2022-10-01T05:05:58.817Z,99901.13
2022-10-01T05:06:30.316Z,99903.78
2022-10-01T05:07:01.783Z,99895.00
2022-10-01T05:07:34.469Z,99900.56
2022-10-01T05:08:06.064Z,99897.19
2022-10-01T05:08:38.883Z,99899.34
2022-10-01T05:09:10.592Z,99896.13
2022-10-01T05:09:42.159Z,99890.31
2022-10-01T05:10:16.068Z,99885.47
2022-10-01T05:10:47.759Z,99894.84
2022-10-01T05:11:19.744Z,99894.59
2022-10-01T05:11:52.067Z,99897.25
2022-10-01T05:12:25.493Z,99894.34
2022-10-01T05:12:58.032Z,99892.50
2022-10-01T05:13:30.361Z,99895.88
2022-10-01T05:14:02.121Z,99896.13
2022-10-01T05:14:34.004Z,99900.66
2022-10-01T05:15:06.182Z,99901.22
2022-10-01T05:15:37.845Z,99904.13
2022-10-01T05:16:09.355Z,99890.81
2022-10-01T05:16:40.922Z,99900.97
2022-10-01T05:17:12.393Z,99896.78
2022-10-01T05:17:44.255Z,99895.66
2022-10-01T05:18:15.882Z,99898.06
2022-10-01T05:18:47.664Z,99894.69
2022-10-01T05:19:19.214Z,99892.75
2022-10-01T05:19:50.986Z,99898.06
2022-10-01T05:20:25.953Z,99900.41
2022-10-01T05:20:57.695Z,99905.72
2022-10-01T05:21:29.195Z,99896.13
2022-10-01T05:22:00.877Z,99897.25
2022-10-01T05:22:32.950Z,99904.69
2022-10-01T05:23:04.934Z,99910.00
2022-10-01T05:23:36.416Z,99908.41
2022-10-01T05:24:08.999Z,99890.31
2022-10-01T05:24:40.717Z,99909.69
2022-10-01T05:25:12.371Z,99910.00
2022-10-01T05:25:46.725Z,99911.63
2022-10-01T05:26:18.316Z,99909.19
2022-10-01T05:26:49.871Z,99912.44
2022-10-01T05:27:21.465Z,99900.16
2022-10-01T05:27:52.990Z,99908.25
2022-10-01T05:28:24.594Z,99915.53
2022-10-01T05:28:56.093Z,99905.56
2022-10-01T05:29:27.572Z,99906.63
2022-10-01T05:29:59.063Z,99910.91
2022-10-01T05:30:31.327Z,99913.91
2022-10-01T05:31:03.940Z,99912.28
2022-10-01T05:31:35.728Z,99920.88
2022-10-01T05:32:10.274Z,99918.78
2022-10-01T05:32:41.948Z,99914.72
2022-10-01T05:33:13.476Z,99923.97
2022-10-01T05:33:45.080Z,99928.03
2022-10-01T05:34:16.587Z,99929.53
2022-10-01T05:34:53.286Z,99917.59
2022-10-01T05:35:25.366Z,99927.44
2022-10-01T05:35:57.706Z,99925.03
2022-10-01T05:36:29.292Z,99934.75
2022-10-01T05:37:00.968Z,99928.84
2022-10-01T05:37:33.727Z,99936.38
2022-10-01T05:38:05.306Z,99938.47
2022-10-01T05:38:37.260Z,99936.38
2022-10-01T05:39:09.188Z,99940.88
2022-10-01T05:39:40.944Z,99936.38
2022-10-01T05:40:12.425Z,99942.03
2022-10-01T05:40:46.103Z,99944.44
2022-10-01T05:41:18.903Z,99937.50
2022-10-01T05:41:50.884Z,99941.44
2022-10-01T05:42:22.357Z,99942.34
2022-10-01T05:42:58.424Z,99941.78
2022-10-01T05:43:31.425Z,99937.59
2022-10-01T05:44:03.011Z,99936.53
2022-10-01T05:44:46.071Z,99942.19
2022-10-01T05:45:20.193Z,99939.44
2022-10-01T05:45:52.153Z,99950.41
2022-10-01T05:46:23.704Z,99943.47
2022-10-01T05:46:55.511Z,99946.38
2022-10-01T05:47:29.831Z,99943.16
2022-10-01T05:48:05.852Z,99940.00
2022-10-01T05:48:38.496Z,99943.97
2022-10-01T05:49:10.626Z,99944.75
2022-10-01T05:49:44.392Z,99949.84
2022-10-01T05:50:16.423Z,99947.19
2022-10-01T05:50:49.967Z,99940.81
2022-10-01T05:51:21.479Z,99945.09
2022-10-01T05:51:53.180Z,99949.84
2022-10-01T05:52:24.689Z,99945.09
2022-10-01T05:52:56.173Z,99933.94
2022-10-01T05:53:28.313Z,99946.72
2022-10-01T05:54:00.420Z,99947.50
2022-10-01T05:54:31.944Z,99958.41
2022-10-01T05:55:03.758Z,99938.47
2022-10-01T05:55:36.008Z,99944.44
2022-10-01T05:56:08.349Z,99947.28
2022-10-01T05:56:39.864Z,99958.16
2022-10-01T05:57:11.512Z,99950.50
2022-10-01T05:57:43.014Z,99961.16
2022-10-01T05:58:15.024Z,99958.50
2022-10-01T05:58:46.807Z,99956.88
2022-10-01T05:59:18.304Z,99959.31
2022-10-01T05:59:49.777Z,99952.56
2022-10-01T06:00:22.809Z,99952.22
2022-10-01T06:00:55.570Z,99956.41
2022-10-01T06:01:27.961Z,99962.28
2022-10-01T06:01:59.732Z,99951.06
2022-10-01T06:02:31.764Z,99961.72
2022-10-01T06:03:04.510Z,99953.72
2022-10-01T06:03:36.272Z,99965.19
2022-10-01T06:04:10.178Z,99955.59
2022-10-01T06:04:42.106Z,99954.53
2022-10-01T06:05:13.653Z,99955.34
2022-10-01T06:05:45.285Z,99959.97
2022-10-01T06:06:23.569Z,99954.41
2022-10-01T06:06:56.221Z,99948.53
2022-10-01T06:07:33.736Z,99958.44
2022-10-01T06:08:06.772Z,99959.19
2022-10-01T06:08:38.329Z,99953.84
2022-10-01T06:09:09.893Z,99965.63
2022-10-01T06:09:41.369Z,99957.88
2022-10-01T06:10:13.471Z,99965.97
2022-10-01T06:10:45.022Z,99956.28
2022-10-01T06:11:23.020Z,99959.75
2022-10-01T06:11:55.246Z,99958.13
2022-10-01T06:12:27.166Z,99962.97
2022-10-01T06:13:02.473Z,99961.44
2022-10-01T06:13:35.634Z,99960.56
2022-10-01T06:14:07.294Z,99957.06
2022-10-01T06:14:39.072Z,99958.13
2022-10-01T06:15:11.712Z,99969.19
2022-10-01T06:15:45.471Z,99962.50
2022-10-01T06:16:17.219Z,99959.91
2022-10-01T06:16:53.360Z,99972.09
2022-10-01T06:17:24.941Z,99964.34
2022-10-01T06:17:56.514Z,99968.88
2022-10-01T06:18:28.088Z,99962.00
2022-10-01T06:18:59.637Z,99966.78
2022-10-01T06:19:31.133Z,99961.75
2022-10-01T06:20:02.685Z,99957.72
2022-10-01T06:20:34.828Z,99971.63
2022-10-01T06:21:06.325Z,99964.25
2022-10-01T06:21:38.005Z,99965.31
2022-10-01T06:22:09.574Z,99962.31
2022-10-01T06:22:43.083Z,99966.38
2022-10-01T06:23:14.910Z,99972.81
2022-10-01T06:23:46.854Z,99972.25
2022-10-01T06:24:18.451Z,99968.22
2022-10-01T06:24:53.695Z,99972.03
2022-10-01T06:25:29.752Z,99968.22
2022-10-01T06:26:02.577Z,99970.09
2022-10-01T06:26:34.285Z,99967.41
2022-10-01T06:27:05.769Z,99962.41
2022-10-01T06:27:37.354Z,99968.22
2022-10-01T06:28:11.335Z,99971.13
2022-10-01T06:28:42.890Z,99970.09
2022-10-01T06:29:14.462Z,99979.88
2022-10-01T06:29:46.016Z,99977.09
2022-10-01T06:30:17.557Z,99972.25
2022-10-01T06:30:50.048Z,99974.75
2022-10-01T06:31:22.035Z,99978.16
2022-10-01T06:31:54.257Z,99977.22
2022-10-01T06:32:25.795Z,99981.72
2022-10-01T06:33:16.582Z,99986.34
2022-10-01T06:33:48.216Z,99979.88
2022-10-01T06:34:19.867Z,99986.81
2022-10-01T06:34:51.476Z,99985.22
2022-10-01T06:35:23.081Z,99981.94
2022-10-01T06:35:54.882Z,99982.75
2022-10-01T06:36:26.457Z,99979.88
2022-10-01T06:36:57.922Z,99981.16
2022-10-01T06:37:29.817Z,99979.97